Puritan, Pennsylvania
Current Conditions -  °F | °C
As of 6:54 PM on Monday 24 Nov 2014 (Local Time) from KJST Reporting Station
Clear Clear  
Wind Chill: 57°   Ceiling: Unl
Heat Index: 57°   Visibility: 10mi
Dew Point: 40°   Wind: 17mph
Humidity: 53%   Direction: 250°WSW
Pressure: 29.66"   Gusts: 23mph
Location:  40.3821°N, 78.6524°W
Report Text: KJST 242354Z AUTO 25015G20KT 10SM CLR 14/04 A2966 RMK AO2 SLP040 T01390044 10194 20139 53038
Loading
Personal Weather Stations






























Interactive Weather Map New forecast layout! Learn more

10-Day Weather Forecast

Advertisements
Track Severe Weather on mobile